createdAt,value
2022-11-10T00:03:45.253Z,19.00
2022-11-10T00:09:09.358Z,24.75
2022-11-10T00:14:49.558Z,17.10
2022-11-10T00:20:13.278Z,14.43
2022-11-10T00:25:37.593Z,21.38
2022-11-10T00:31:05.828Z,16.25
2022-11-10T00:36:28.408Z,23.92
2022-11-10T00:41:52.388Z,20.13
2022-11-10T00:47:15.101Z,23.58
2022-11-10T00:52:37.912Z,16.77
2022-11-10T00:58:01.561Z,18.92
2022-11-10T01:03:24.627Z,16.55
2022-11-10T01:08:47.877Z,19.20
2022-11-10T01:14:11.843Z,20.05
2022-11-10T01:19:34.600Z,27.48
2022-11-10T01:24:56.963Z,21.70
2022-11-10T01:30:21.093Z,18.02
2022-11-10T01:35:43.514Z,16.42
2022-11-10T01:41:07.674Z,16.70
2022-11-10T01:46:31.927Z,17.23
2022-11-10T01:51:58.999Z,17.85
2022-11-10T01:57:21.917Z,17.40
2022-11-10T02:02:50.819Z,15.57
2022-11-10T02:08:17.022Z,16.15
2022-11-10T02:13:40.164Z,15.77
2022-11-10T02:19:17.130Z,17.42
2022-11-10T02:30:06.189Z,14.88
2022-11-10T02:35:29.232Z,14.77
2022-11-10T02:40:53.269Z,15.18
2022-11-10T02:46:15.765Z,12.90
2022-11-10T02:51:39.213Z,12.70
2022-11-10T02:57:03.556Z,12.65
2022-11-10T03:02:29.788Z,11.82
2022-11-10T03:07:55.764Z,11.48
2022-11-10T03:13:19.926Z,11.65
2022-11-10T03:18:43.138Z,11.48
2022-11-10T03:24:06.375Z,12.40
2022-11-10T03:29:30.595Z,12.75
2022-11-10T03:34:53.859Z,10.77
2022-11-10T03:40:16.990Z,12.73
2022-11-10T03:45:40.833Z,14.20
2022-11-10T03:51:03.285Z,14.15
2022-11-10T03:56:26.008Z,12.40
2022-11-10T04:01:50.223Z,12.23
2022-11-10T04:07:31.361Z,12.88
2022-11-10T04:13:11.143Z,11.52
2022-11-10T04:18:35.270Z,12.02
2022-11-10T04:23:58.312Z,11.45
2022-11-10T04:29:21.572Z,13.00
2022-11-10T04:34:45.876Z,13.63
2022-11-10T04:40:09.244Z,13.85
2022-11-10T04:45:31.908Z,12.45
2022-11-10T04:50:56.109Z,12.18
2022-11-10T04:56:20.207Z,11.73
2022-11-10T05:01:43.045Z,12.70
2022-11-10T05:07:07.485Z,33.03
2022-11-10T05:12:30.472Z,11.23
2022-11-10T05:17:54.225Z,13.52
2022-11-10T05:23:35.691Z,12.90
2022-11-10T05:28:58.618Z,13.15
2022-11-10T05:34:21.261Z,14.32
2022-11-10T05:39:45.242Z,25.83
2022-11-10T05:45:09.144Z,17.00
2022-11-10T05:50:31.584Z,25.30
2022-11-10T05:55:55.641Z,17.40
2022-11-10T06:01:18.228Z,27.20
2022-11-10T06:06:41.248Z,14.63
2022-11-10T06:12:05.991Z,21.17
2022-11-10T06:17:28.794Z,15.65
2022-11-10T06:23:02.835Z,14.82
2022-11-10T06:28:27.487Z,17.77
2022-11-10T06:33:52.427Z,20.60
2022-11-10T06:39:17.618Z,14.80
2022-11-10T06:44:45.341Z,14.82
2022-11-10T06:50:11.853Z,14.15
2022-11-10T06:55:37.619Z,18.77
2022-11-10T07:01:04.541Z,17.50
2022-11-10T07:06:28.116Z,17.45
2022-11-10T07:11:50.880Z,18.77
2022-11-10T07:17:15.117Z,16.85
2022-11-10T07:22:37.600Z,19.30
2022-11-10T07:28:01.224Z,19.35
2022-11-10T07:33:25.106Z,17.83
2022-11-10T07:38:50.688Z,22.90
2022-11-10T07:44:15.471Z,18.85
2022-11-10T07:49:39.814Z,23.57
2022-11-10T07:55:02.978Z,25.77
2022-11-10T08:00:25.853Z,25.92
2022-11-10T08:05:49.947Z,20.48
2022-11-10T08:11:12.387Z,17.05
2022-11-10T08:16:35.346Z,20.63
2022-11-10T08:21:59.767Z,18.20
2022-11-10T08:27:22.907Z,16.10
2022-11-10T08:32:45.579Z,19.17
2022-11-10T08:38:11.033Z,18.65
2022-11-10T08:43:34.000Z,20.30
2022-11-10T08:48:56.522Z,16.27
2022-11-10T08:54:20.579Z,17.38
2022-11-10T08:59:43.302Z,16.60
2022-11-10T09:05:07.244Z,15.45
2022-11-10T09:10:31.559Z,13.55
2022-11-10T09:15:53.878Z,13.48
2022-11-10T09:21:16.642Z,13.77
2022-11-10T09:26:45.301Z,12.88
2022-11-10T09:32:08.222Z,13.05
2022-11-10T09:37:30.697Z,14.40
2022-11-10T09:42:59.123Z,16.33
2022-11-10T09:48:28.828Z,15.43
2022-11-10T09:53:56.322Z,15.35
2022-11-10T09:59:27.464Z,21.13
2022-11-10T10:05:23.307Z,20.90
2022-11-10T10:10:49.353Z,23.63
2022-11-10T10:16:21.386Z,22.38
2022-11-10T10:21:56.191Z,23.48
2022-11-10T10:27:22.524Z,23.35
2022-11-10T10:32:46.678Z,23.63
2022-11-10T10:38:24.450Z,19.35
2022-11-10T10:43:50.399Z,21.65
2022-11-10T10:49:30.186Z,21.40
2022-11-10T10:55:02.137Z,20.00
2022-11-10T11:00:29.558Z,19.30
2022-11-10T11:06:08.773Z,17.33
2022-11-10T11:11:36.723Z,17.67
2022-11-10T11:17:02.256Z,14.73
2022-11-10T11:22:44.240Z,14.63
2022-11-10T11:28:19.757Z,15.82
2022-11-10T11:33:50.546Z,17.17
2022-11-10T11:39:31.254Z,20.85
2022-11-10T11:45:07.493Z,18.38
2022-11-10T11:50:37.539Z,18.75
2022-11-10T11:56:16.718Z,21.05
2022-11-10T12:02:02.864Z,18.95
2022-11-10T12:07:45.257Z,20.27
2022-11-10T12:13:31.459Z,19.35
2022-11-10T12:19:08.823Z,20.45
2022-11-10T12:24:57.473Z,21.00
2022-11-10T12:30:21.999Z,22.10
2022-11-10T12:35:47.413Z,24.08
2022-11-10T12:41:15.991Z,21.57
2022-11-10T12:46:48.163Z,21.85
2022-11-10T12:52:22.700Z,23.75
2022-11-10T12:57:50.510Z,23.15
2022-11-10T13:03:28.673Z,20.40
2022-11-10T13:08:53.453Z,21.58
2022-11-10T13:14:26.406Z,21.90
2022-11-10T13:19:53.372Z,23.80
2022-11-10T13:25:55.954Z,22.00
2022-11-10T13:31:52.465Z,23.67
2022-11-10T13:43:27.924Z,23.15
2022-11-10T13:49:30.955Z,23.10
2022-11-10T13:55:15.714Z,24.90
2022-11-10T14:00:40.309Z,30.23
2022-11-10T14:06:13.729Z,43.15
2022-11-10T14:11:40.266Z,48.15
2022-11-10T14:17:05.154Z,27.27
2022-11-10T14:22:50.020Z,25.33
2022-11-10T14:28:28.374Z,31.58
2022-11-10T14:33:57.566Z,30.40
2022-11-10T14:39:24.903Z,29.45
2022-11-10T14:44:48.780Z,30.40
2022-11-10T14:50:21.097Z,27.73
2022-11-10T14:55:45.398Z,28.00
2022-11-10T15:01:09.111Z,27.30
2022-11-10T15:06:33.806Z,34.08
2022-11-10T15:12:31.556Z,35.78
2022-11-10T15:17:54.013Z,54.85
2022-11-10T15:23:23.383Z,45.05
2022-11-10T15:28:56.254Z,41.75
2022-11-10T15:34:44.437Z,31.27
2022-11-10T15:40:30.926Z,29.27
2022-11-10T15:45:58.696Z,33.33
2022-11-10T15:51:26.088Z,29.77
2022-11-10T15:56:49.561Z,29.55
2022-11-10T16:02:20.768Z,31.98
2022-11-10T16:07:43.943Z,35.45
2022-11-10T16:13:07.345Z,37.28
2022-11-10T16:18:33.060Z,40.78
2022-11-10T16:23:56.507Z,46.50
2022-11-10T16:29:21.181Z,45.00
2022-11-10T16:34:45.896Z,39.65
2022-11-10T16:40:14.796Z,39.30
2022-11-10T16:45:37.156Z,36.35
2022-11-10T16:51:02.904Z,36.17
2022-11-10T16:56:26.932Z,39.38
2022-11-10T17:01:51.593Z,63.92
2022-11-10T17:07:16.367Z,52.67
2022-11-10T17:12:39.239Z,53.50
2022-11-10T17:18:07.175Z,43.28
2022-11-10T17:23:31.628Z,44.47
2022-11-10T17:28:54.516Z,47.20
2022-11-10T17:34:17.422Z,48.05
2022-11-10T17:39:42.437Z,48.67
2022-11-10T17:45:05.847Z,42.30
2022-11-10T17:50:29.079Z,39.88
2022-11-10T17:55:53.154Z,35.67
2022-11-10T18:01:18.639Z,40.35
2022-11-10T18:12:06.352Z,46.10
2022-11-10T18:17:32.303Z,76.60
2022-11-10T18:22:57.680Z,49.00
2022-11-10T18:28:21.887Z,49.95
2022-11-10T18:33:44.789Z,37.08
2022-11-10T18:39:07.549Z,37.90
2022-11-10T18:44:36.900Z,43.20
2022-11-10T18:50:00.378Z,44.92
2022-11-10T18:55:25.215Z,36.10
2022-11-10T19:00:49.563Z,36.15
2022-11-10T19:06:12.916Z,33.70
2022-11-10T19:11:35.909Z,32.35
2022-11-10T19:16:59.978Z,49.17
2022-11-10T19:22:22.773Z,37.65
2022-11-10T19:27:45.000Z,29.17
2022-11-10T19:33:08.740Z,30.90
2022-11-10T19:38:31.717Z,27.60
2022-11-10T19:43:55.073Z,25.40
2022-11-10T19:49:20.504Z,24.10
2022-11-10T19:54:43.523Z,24.83
2022-11-10T20:00:07.339Z,26.50
2022-11-10T20:05:31.681Z,28.13
2022-11-10T20:10:54.576Z,29.38
2022-11-10T20:16:18.253Z,26.23
2022-11-10T20:21:45.703Z,28.00
2022-11-10T20:27:08.641Z,26.48
2022-11-10T20:32:31.996Z,26.52
2022-11-10T20:37:55.797Z,28.27
2022-11-10T20:43:18.648Z,26.02
2022-11-10T20:48:41.420Z,24.65
2022-11-10T20:54:05.545Z,27.33
2022-11-10T20:59:27.906Z,26.63
2022-11-10T21:05:13.724Z,26.02
2022-11-10T21:10:53.583Z,26.15
2022-11-10T21:16:16.729Z,26.38
2022-11-10T21:21:39.684Z,25.15
2022-11-10T21:27:04.661Z,25.65
2022-11-10T21:32:27.766Z,26.95
2022-11-10T21:37:50.501Z,24.33
2022-11-10T21:43:14.697Z,26.38
2022-11-10T21:48:38.261Z,26.58
2022-11-10T21:54:03.926Z,24.65
2022-11-10T21:59:28.398Z,25.13
2022-11-10T22:04:51.194Z,24.83
2022-11-10T22:10:31.610Z,27.77
2022-11-10T22:16:12.932Z,25.88
2022-11-10T22:21:36.226Z,26.25
2022-11-10T22:27:01.411Z,26.67
2022-11-10T22:32:25.687Z,27.80
2022-11-10T22:37:48.053Z,28.40
2022-11-10T22:43:28.988Z,26.25
2022-11-10T22:48:53.269Z,26.92
2022-11-10T22:54:17.315Z,27.35
2022-11-10T22:59:40.107Z,29.08
2022-11-10T23:05:04.640Z,29.45
2022-11-10T23:10:27.800Z,26.50
2022-11-10T23:15:53.296Z,32.97
2022-11-10T23:21:20.741Z,29.30
2022-11-10T23:26:43.598Z,25.27
2022-11-10T23:32:06.777Z,23.63
2022-11-10T23:37:31.130Z,23.65
2022-11-10T23:42:53.770Z,22.30
2022-11-10T23:48:18.208Z,22.50
2022-11-10T23:53:42.766Z,21.50
2022-11-10T23:59:05.809Z,22.77
